Terminal Aerodrome Forecast
Issued by NWS

Current Version | Previous Version | Graphics & Text | Print | Product List | Glossary On
Versions: 1 2 3 4 5 6 7 8 9 10 11 12 13 14 15 16 17 18 19 20 21
147
FTUS41 KPBZ 091132
TAFMGW
TAF
KMGW 091132Z 0912/1012 21004KT 1SM -SN SCT004 OVC015
     FM091300 25005KT 3SM -SN BKN008 OVC015
     FM091500 29005KT 1SM -SN OVC007
     FM100000 30008KT 5SM -SHSN BKN010
     FM100600 26010KT P6SM OVC015=

USA.gov is the U.S. government's official web portal to all federal, state and local government web resources and services.